Terminal Aerodrome Forecast
Issued by NWS Cleveland, OH

Home | Current Version | Previous Version | Text Only | Print | Product List | Glossary Off
Versions: 1 2 3 4 5 6 7 8 9 10 11 12 13 14 15 16 17 18 19 20 21 22 23 24 25 26 27

000
FTUS41 KCLE 140200 AAB
TAFCLE
TAF AMD
KCLE 140234Z 1403/1506 17009KT P6SM FEW050 BKN200 WS010/21040KT
     FM141100 19010G20KT P6SM VCSH BKN050 WS010/21045KT
     FM141600 20022G32KT 5SM -SHRA VCTS BKN030CB OVC080
     FM142100 26015G23KT 4SM -SHRA BKN015 OVC025
     FM142300 33013G20KT 6SM -SHRA SCT012 OVC018=

USA.gov is the U.S. government's official web portal to all federal, state and local government web resources and services.